sensor_id;sensor_type;location;lat;lon;timestamp;temperature;humidity
21306;DHT22;10812;51.838;5.838;2022-12-18T00:00:06;-4.90;99.90
21306;DHT22;10812;51.838;5.838;2022-12-18T00:02:34;-4.90;99.90
21306;DHT22;10812;51.838;5.838;2022-12-18T00:05:02;-4.90;99.90
21306;DHT22;10812;51.838;5.838;2022-12-18T00:07:30;-5.00;99.90
21306;DHT22;10812;51.838;5.838;2022-12-18T00:09:58;-5.00;99.90
21306;DHT22;10812;51.838;5.838;2022-12-18T00:12:26;-5.00;99.90
21306;DHT22;10812;51.838;5.838;2022-12-18T00:14:57;-5.00;99.90
21306;DHT22;10812;51.838;5.838;2022-12-18T00:17:25;-5.00;99.90
21306;DHT22;10812;51.838;5.838;2022-12-18T00:19:53;-4.90;99.90
21306;DHT22;10812;51.838;5.838;2022-12-18T00:22:21;-4.80;99.90
21306;DHT22;10812;51.838;5.838;2022-12-18T00:24:49;-4.70;99.90
21306;DHT22;10812;51.838;5.838;2022-12-18T00:27:17;-4.70;99.90
21306;DHT22;10812;51.838;5.838;2022-12-18T00:29:45;-4.60;99.90
21306;DHT22;10812;51.838;5.838;2022-12-18T00:32:15;-4.60;99.90
21306;DHT22;10812;51.838;5.838;2022-12-18T00:34:43;-4.60;99.90
21306;DHT22;10812;51.838;5.838;2022-12-18T00:37:11;-4.60;99.90
21306;DHT22;10812;51.838;5.838;2022-12-18T00:39:48;-4.70;99.90
21306;DHT22;10812;51.838;5.838;2022-12-18T00:42:16;-4.70;99.90
21306;DHT22;10812;51.838;5.838;2022-12-18T00:44:58;-4.70;99.90
21306;DHT22;10812;51.838;5.838;2022-12-18T00:47:27;-4.70;99.90
21306;DHT22;10812;51.838;5.838;2022-12-18T00:49:55;-4.70;99.90
21306;DHT22;10812;51.838;5.838;2022-12-18T00:52:23;-4.70;99.90
21306;DHT22;10812;51.838;5.838;2022-12-18T00:54:51;-4.70;99.90
21306;DHT22;10812;51.838;5.838;2022-12-18T00:57:19;-4.80;99.90
21306;DHT22;10812;51.838;5.838;2022-12-18T00:59:48;-4.70;99.90
21306;DHT22;10812;51.838;5.838;2022-12-18T01:02:16;-4.70;99.90
21306;DHT22;10812;51.838;5.838;2022-12-18T01:04:45;-4.70;99.90
21306;DHT22;10812;51.838;5.838;2022-12-18T01:07:13;-4.70;99.90
21306;DHT22;10812;51.838;5.838;2022-12-18T01:09:42;-4.40;99.90
21306;DHT22;10812;51.838;5.838;2022-12-18T01:12:10;-4.30;99.90
21306;DHT22;10812;51.838;5.838;2022-12-18T01:14:38;-4.30;99.90
21306;DHT22;10812;51.838;5.838;2022-12-18T01:17:06;-4.30;99.90
21306;DHT22;10812;51.838;5.838;2022-12-18T01:19:34;-4.50;99.90
21306;DHT22;10812;51.838;5.838;2022-12-18T01:22:04;-4.60;99.90
21306;DHT22;10812;51.838;5.838;2022-12-18T01:24:32;-4.60;99.90
21306;DHT22;10812;51.838;5.838;2022-12-18T01:27:00;-4.60;99.90
21306;DHT22;10812;51.838;5.838;2022-12-18T01:29:28;-4.60;99.90
21306;DHT22;10812;51.838;5.838;2022-12-18T01:31:56;-4.60;99.90
21306;DHT22;10812;51.838;5.838;2022-12-18T01:34:24;-4.60;99.90
21306;DHT22;10812;51.838;5.838;2022-12-18T01:36:52;-4.60;99.90
21306;DHT22;10812;51.838;5.838;2022-12-18T01:39:22;-4.60;99.90
21306;DHT22;10812;51.838;5.838;2022-12-18T01:41:50;-4.70;99.90
21306;DHT22;10812;51.838;5.838;2022-12-18T01:44:55;-4.70;99.90
21306;DHT22;10812;51.838;5.838;2022-12-18T01:47:26;-4.70;99.90
21306;DHT22;10812;51.838;5.838;2022-12-18T01:49:56;-4.70;99.90
21306;DHT22;10812;51.838;5.838;2022-12-18T01:52:27;-4.70;99.90
21306;DHT22;10812;51.838;5.838;2022-12-18T01:54:57;-4.70;99.90
21306;DHT22;10812;51.838;5.838;2022-12-18T01:57:27;-4.70;99.90
21306;DHT22;10812;51.838;5.838;2022-12-18T01:59:59;-4.70;99.90
21306;DHT22;10812;51.838;5.838;2022-12-18T02:02:28;-4.70;99.90
21306;DHT22;10812;51.838;5.838;2022-12-18T02:04:57;-4.70;99.90
21306;DHT22;10812;51.838;5.838;2022-12-18T02:07:35;-4.70;99.90
21306;DHT22;10812;51.838;5.838;2022-12-18T02:10:12;-4.80;99.90
21306;DHT22;10812;51.838;5.838;2022-12-18T02:12:48;-4.80;99.90
21306;DHT22;10812;51.838;5.838;2022-12-18T02:15:24;-4.80;99.90
21306;DHT22;10812;51.838;5.838;2022-12-18T02:17:56;-4.80;99.90
21306;DHT22;10812;51.838;5.838;2022-12-18T02:20:31;-4.80;99.90
21306;DHT22;10812;51.838;5.838;2022-12-18T02:23:08;-4.70;99.90
21306;DHT22;10812;51.838;5.838;2022-12-18T02:26:00;-4.70;99.90
21306;DHT22;10812;51.838;5.838;2022-12-18T02:28:32;-4.70;99.90
21306;DHT22;10812;51.838;5.838;2022-12-18T02:31:03;-4.70;99.90
21306;DHT22;10812;51.838;5.838;2022-12-18T02:33:35;-4.70;99.90
21306;DHT22;10812;51.838;5.838;2022-12-18T02:36:04;-4.70;99.90
21306;DHT22;10812;51.838;5.838;2022-12-18T02:38:33;-4.70;99.90
21306;DHT22;10812;51.838;5.838;2022-12-18T02:41:04;-4.80;99.90
21306;DHT22;10812;51.838;5.838;2022-12-18T02:43:33;-4.80;99.90
21306;DHT22;10812;51.838;5.838;2022-12-18T02:46:28;-4.80;99.90
21306;DHT22;10812;51.838;5.838;2022-12-18T02:49:05;-4.80;99.90
21306;DHT22;10812;51.838;5.838;2022-12-18T02:51:39;-4.80;99.90
21306;DHT22;10812;51.838;5.838;2022-12-18T02:54:13;-4.90;99.90
21306;DHT22;10812;51.838;5.838;2022-12-18T02:56:51;-4.90;99.90
21306;DHT22;10812;51.838;5.838;2022-12-18T02:59:25;-5.00;99.90
21306;DHT22;10812;51.838;5.838;2022-12-18T03:07:21;-4.90;99.90
21306;DHT22;10812;51.838;5.838;2022-12-18T03:09:52;-4.80;99.90
21306;DHT22;10812;51.838;5.838;2022-12-18T03:12:27;-4.90;99.90
21306;DHT22;10812;51.838;5.838;2022-12-18T03:15:01;-4.90;99.90
21306;DHT22;10812;51.838;5.838;2022-12-18T03:17:32;-4.90;99.90
21306;DHT22;10812;51.838;5.838;2022-12-18T03:20:05;-4.80;99.90
21306;DHT22;10812;51.838;5.838;2022-12-18T03:22:35;-4.80;99.90
21306;DHT22;10812;51.838;5.838;2022-12-18T03:25:07;-4.90;99.90
21306;DHT22;10812;51.838;5.838;2022-12-18T03:27:42;-5.00;99.90
21306;DHT22;10812;51.838;5.838;2022-12-18T03:30:12;-5.00;99.90
21306;DHT22;10812;51.838;5.838;2022-12-18T03:32:44;-5.00;99.90
21306;DHT22;10812;51.838;5.838;2022-12-18T03:35:18;-5.10;99.90
21306;DHT22;10812;51.838;5.838;2022-12-18T03:37:47;-5.10;99.90
21306;DHT22;10812;51.838;5.838;2022-12-18T03:43:48;-5.10;99.90
21306;DHT22;10812;51.838;5.838;2022-12-18T03:46:24;-5.00;99.90
21306;DHT22;10812;51.838;5.838;2022-12-18T03:48:59;-4.90;99.90
21306;DHT22;10812;51.838;5.838;2022-12-18T03:51:35;-4.90;99.90
21306;DHT22;10812;51.838;5.838;2022-12-18T03:54:06;-4.80;99.90
21306;DHT22;10812;51.838;5.838;2022-12-18T03:56:38;-4.80;99.90
21306;DHT22;10812;51.838;5.838;2022-12-18T03:59:10;-4.90;99.90
21306;DHT22;10812;51.838;5.838;2022-12-18T04:01:42;-4.90;99.90
21306;DHT22;10812;51.838;5.838;2022-12-18T04:04:14;-4.80;99.90
21306;DHT22;10812;51.838;5.838;2022-12-18T04:06:44;-4.80;99.90
21306;DHT22;10812;51.838;5.838;2022-12-18T04:09:13;-4.90;99.90
21306;DHT22;10812;51.838;5.838;2022-12-18T04:11:41;-4.90;99.90
21306;DHT22;10812;51.838;5.838;2022-12-18T04:14:11;-4.90;99.90
21306;DHT22;10812;51.838;5.838;2022-12-18T04:16:43;-4.90;99.90
21306;DHT22;10812;51.838;5.838;2022-12-18T04:19:12;-4.90;99.90
21306;DHT22;10812;51.838;5.838;2022-12-18T04:21:40;-4.70;99.90
21306;DHT22;10812;51.838;5.838;2022-12-18T04:24:08;-4.60;99.90
21306;DHT22;10812;51.838;5.838;2022-12-18T04:26:36;-4.60;99.90
21306;DHT22;10812;51.838;5.838;2022-12-18T04:29:05;-4.50;99.90
21306;DHT22;10812;51.838;5.838;2022-12-18T04:31:34;-4.40;99.90
21306;DHT22;10812;51.838;5.838;2022-12-18T04:34:02;-4.40;99.90
21306;DHT22;10812;51.838;5.838;2022-12-18T04:36:30;-4.40;99.90
21306;DHT22;10812;51.838;5.838;2022-12-18T04:38:58;-4.50;99.90
21306;DHT22;10812;51.838;5.838;2022-12-18T04:41:27;-4.70;99.90
21306;DHT22;10812;51.838;5.838;2022-12-18T04:43:55;-4.90;99.90
21306;DHT22;10812;51.838;5.838;2022-12-18T04:46:23;-5.20;99.90
21306;DHT22;10812;51.838;5.838;2022-12-18T04:48:52;-5.30;99.90
21306;DHT22;10812;51.838;5.838;2022-12-18T04:51:20;-5.10;99.90
21306;DHT22;10812;51.838;5.838;2022-12-18T04:53:52;-5.10;99.90
21306;DHT22;10812;51.838;5.838;2022-12-18T04:56:21;-5.10;99.90
21306;DHT22;10812;51.838;5.838;2022-12-18T04:58:49;-5.20;99.90
21306;DHT22;10812;51.838;5.838;2022-12-18T05:01:18;-5.30;99.90
21306;DHT22;10812;51.838;5.838;2022-12-18T05:03:46;-5.40;99.90
21306;DHT22;10812;51.838;5.838;2022-12-18T05:06:16;-5.50;99.90
21306;DHT22;10812;51.838;5.838;2022-12-18T05:08:44;-5.60;99.90
21306;DHT22;10812;51.838;5.838;2022-12-18T05:11:14;-5.70;99.90
21306;DHT22;10812;51.838;5.838;2022-12-18T05:13:43;-5.80;99.90
21306;DHT22;10812;51.838;5.838;2022-12-18T05:16:12;-5.70;99.90
21306;DHT22;10812;51.838;5.838;2022-12-18T05:18:41;-5.80;99.90
21306;DHT22;10812;51.838;5.838;2022-12-18T05:21:10;-5.80;99.90
21306;DHT22;10812;51.838;5.838;2022-12-18T05:23:40;-5.90;99.90
21306;DHT22;10812;51.838;5.838;2022-12-18T05:26:09;-6.00;99.90
21306;DHT22;10812;51.838;5.838;2022-12-18T05:28:41;-6.10;99.90
21306;DHT22;10812;51.838;5.838;2022-12-18T05:31:10;-6.00;99.90
21306;DHT22;10812;51.838;5.838;2022-12-18T05:33:39;-6.00;99.90
21306;DHT22;10812;51.838;5.838;2022-12-18T05:36:08;-5.90;99.90
21306;DHT22;10812;51.838;5.838;2022-12-18T05:38:37;-5.80;99.90
21306;DHT22;10812;51.838;5.838;2022-12-18T05:41:07;-5.70;99.90
21306;DHT22;10812;51.838;5.838;2022-12-18T05:43:37;-5.50;99.90
21306;DHT22;10812;51.838;5.838;2022-12-18T05:46:06;-5.50;99.90
21306;DHT22;10812;51.838;5.838;2022-12-18T05:48:35;-5.40;99.90
21306;DHT22;10812;51.838;5.838;2022-12-18T05:51:05;-5.30;99.90
21306;DHT22;10812;51.838;5.838;2022-12-18T05:53:35;-5.20;99.90
21306;DHT22;10812;51.838;5.838;2022-12-18T05:56:07;-5.10;99.90
21306;DHT22;10812;51.838;5.838;2022-12-18T05:58:36;-5.00;99.90
21306;DHT22;10812;51.838;5.838;2022-12-18T06:01:09;-4.90;99.90
21306;DHT22;10812;51.838;5.838;2022-12-18T06:03:38;-4.90;99.90
21306;DHT22;10812;51.838;5.838;2022-12-18T06:06:13;-4.90;99.90
21306;DHT22;10812;51.838;5.838;2022-12-18T06:08:41;-4.90;99.90
21306;DHT22;10812;51.838;5.838;2022-12-18T06:11:17;-5.00;99.90
21306;DHT22;10812;51.838;5.838;2022-12-18T06:13:45;-4.90;99.90
21306;DHT22;10812;51.838;5.838;2022-12-18T06:16:13;-4.90;99.90
21306;DHT22;10812;51.838;5.838;2022-12-18T06:18:41;-4.60;99.90
21306;DHT22;10812;51.838;5.838;2022-12-18T06:21:09;-4.50;99.90
21306;DHT22;10812;51.838;5.838;2022-12-18T06:23:38;-4.50;99.90
21306;DHT22;10812;51.838;5.838;2022-12-18T06:26:08;-4.30;99.90
21306;DHT22;10812;51.838;5.838;2022-12-18T06:28:38;-4.30;99.90
21306;DHT22;10812;51.838;5.838;2022-12-18T06:31:07;-4.20;99.90
21306;DHT22;10812;51.838;5.838;2022-12-18T06:33:35;-4.20;99.90
21306;DHT22;10812;51.838;5.838;2022-12-18T06:36:06;-4.10;99.90
21306;DHT22;10812;51.838;5.838;2022-12-18T06:38:40;-4.00;99.90
21306;DHT22;10812;51.838;5.838;2022-12-18T06:41:10;-3.90;99.90
21306;DHT22;10812;51.838;5.838;2022-12-18T06:43:40;-3.90;99.90
21306;DHT22;10812;51.838;5.838;2022-12-18T06:46:09;-3.90;99.90
21306;DHT22;10812;51.838;5.838;2022-12-18T06:48:37;-3.90;99.90
21306;DHT22;10812;51.838;5.838;2022-12-18T06:51:06;-4.00;99.90
21306;DHT22;10812;51.838;5.838;2022-12-18T06:53:34;-3.90;99.90
21306;DHT22;10812;51.838;5.838;2022-12-18T06:56:03;-3.80;99.90
21306;DHT22;10812;51.838;5.838;2022-12-18T06:58:36;-3.90;99.90
21306;DHT22;10812;51.838;5.838;2022-12-18T07:01:07;-4.00;99.90
21306;DHT22;10812;51.838;5.838;2022-12-18T07:03:35;-4.10;99.90
21306;DHT22;10812;51.838;5.838;2022-12-18T07:06:04;-4.10;99.90
21306;DHT22;10812;51.838;5.838;2022-12-18T07:08:33;-4.00;99.90
21306;DHT22;10812;51.838;5.838;2022-12-18T07:11:03;-4.00;99.90
21306;DHT22;10812;51.838;5.838;2022-12-18T07:13:32;-4.00;99.90
21306;DHT22;10812;51.838;5.838;2022-12-18T07:16:06;-3.90;99.90
21306;DHT22;10812;51.838;5.838;2022-12-18T07:18:44;-3.80;99.90
21306;DHT22;10812;51.838;5.838;2022-12-18T07:21:14;-3.80;99.90
21306;DHT22;10812;51.838;5.838;2022-12-18T07:23:42;-3.90;99.90
21306;DHT22;10812;51.838;5.838;2022-12-18T07:26:13;-3.90;99.90
21306;DHT22;10812;51.838;5.838;2022-12-18T07:28:42;-3.90;99.90
21306;DHT22;10812;51.838;5.838;2022-12-18T07:31:13;-3.90;99.90
21306;DHT22;10812;51.838;5.838;2022-12-18T07:33:42;-3.80;99.90
21306;DHT22;10812;51.838;5.838;2022-12-18T07:36:11;-3.80;99.90
21306;DHT22;10812;51.838;5.838;2022-12-18T07:38:39;-3.80;99.90
21306;DHT22;10812;51.838;5.838;2022-12-18T07:41:09;-3.70;99.90
21306;DHT22;10812;51.838;5.838;2022-12-18T07:43:38;-3.60;99.90
21306;DHT22;10812;51.838;5.838;2022-12-18T07:46:08;-3.60;99.90
21306;DHT22;10812;51.838;5.838;2022-12-18T07:48:40;-3.60;99.90
21306;DHT22;10812;51.838;5.838;2022-12-18T07:51:11;-3.50;99.90
21306;DHT22;10812;51.838;5.838;2022-12-18T07:53:39;-3.50;99.90
21306;DHT22;10812;51.838;5.838;2022-12-18T07:56:09;-3.40;99.90
21306;DHT22;10812;51.838;5.838;2022-12-18T07:58:56;-3.30;99.90
21306;DHT22;10812;51.838;5.838;2022-12-18T08:01:24;-3.30;99.90
21306;DHT22;10812;51.838;5.838;2022-12-18T08:03:54;-3.30;99.90
21306;DHT22;10812;51.838;5.838;2022-12-18T08:06:22;-3.30;99.90
21306;DHT22;10812;51.838;5.838;2022-12-18T08:08:52;-3.20;99.90
21306;DHT22;10812;51.838;5.838;2022-12-18T08:11:20;-3.10;99.90
21306;DHT22;10812;51.838;5.838;2022-12-18T08:13:49;-3.00;99.90
21306;DHT22;10812;51.838;5.838;2022-12-18T08:16:17;-3.00;99.90
21306;DHT22;10812;51.838;5.838;2022-12-18T08:18:46;-2.90;99.90
21306;DHT22;10812;51.838;5.838;2022-12-18T08:21:18;-2.80;99.90
21306;DHT22;10812;51.838;5.838;2022-12-18T08:23:48;-2.80;99.90
21306;DHT22;10812;51.838;5.838;2022-12-18T08:26:18;-2.70;99.90
21306;DHT22;10812;51.838;5.838;2022-12-18T08:28:47;-2.60;99.90
21306;DHT22;10812;51.838;5.838;2022-12-18T08:31:16;-2.60;99.90
21306;DHT22;10812;51.838;5.838;2022-12-18T08:33:45;-2.50;99.90
21306;DHT22;10812;51.838;5.838;2022-12-18T08:36:17;-2.50;99.90
21306;DHT22;10812;51.838;5.838;2022-12-18T08:38:45;-2.30;99.90
21306;DHT22;10812;51.838;5.838;2022-12-18T08:41:15;-2.30;99.90
21306;DHT22;10812;51.838;5.838;2022-12-18T08:43:43;-2.20;99.90
21306;DHT22;10812;51.838;5.838;2022-12-18T08:46:33;-2.10;99.90
21306;DHT22;10812;51.838;5.838;2022-12-18T08:49:02;-2.00;99.90
21306;DHT22;10812;51.838;5.838;2022-12-18T08:51:32;-2.00;99.90
21306;DHT22;10812;51.838;5.838;2022-12-18T08:54:00;-2.00;99.90
21306;DHT22;10812;51.838;5.838;2022-12-18T08:56:30;-1.90;99.90
21306;DHT22;10812;51.838;5.838;2022-12-18T08:58:58;-1.90;99.90
21306;DHT22;10812;51.838;5.838;2022-12-18T09:01:27;-1.90;99.90
21306;DHT22;10812;51.838;5.838;2022-12-18T09:03:55;-1.90;99.90
21306;DHT22;10812;51.838;5.838;2022-12-18T09:06:23;-1.90;99.90
21306;DHT22;10812;51.838;5.838;2022-12-18T09:08:54;-1.90;99.90
21306;DHT22;10812;51.838;5.838;2022-12-18T09:11:24;-1.80;99.90
21306;DHT22;10812;51.838;5.838;2022-12-18T09:13:54;-1.70;99.90
21306;DHT22;10812;51.838;5.838;2022-12-18T09:16:23;-1.60;99.90
21306;DHT22;10812;51.838;5.838;2022-12-18T09:18:58;-1.50;99.90
21306;DHT22;10812;51.838;5.838;2022-12-18T09:21:28;-1.50;99.90
21306;DHT22;10812;51.838;5.838;2022-12-18T09:23:58;-1.40;99.90
21306;DHT22;10812;51.838;5.838;2022-12-18T09:33:38;-1.30;99.90
21306;DHT22;10812;51.838;5.838;2022-12-18T09:36:08;-1.20;99.90
21306;DHT22;10812;51.838;5.838;2022-12-18T09:38:36;-1.20;99.90
21306;DHT22;10812;51.838;5.838;2022-12-18T09:41:20;-1.10;99.90
21306;DHT22;10812;51.838;5.838;2022-12-18T09:43:55;-1.10;99.90
21306;DHT22;10812;51.838;5.838;2022-12-18T09:46:28;-1.10;99.90
21306;DHT22;10812;51.838;5.838;2022-12-18T09:49:00;-1.00;99.90
21306;DHT22;10812;51.838;5.838;2022-12-18T09:51:33;-1.00;99.90
21306;DHT22;10812;51.838;5.838;2022-12-18T09:54:06;-0.90;99.90
21306;DHT22;10812;51.838;5.838;2022-12-18T09:56:40;-0.90;99.90
21306;DHT22;10812;51.838;5.838;2022-12-18T09:59:20;-0.90;99.90
21306;DHT22;10812;51.838;5.838;2022-12-18T10:01:49;-0.90;99.90
21306;DHT22;10812;51.838;5.838;2022-12-18T10:04:17;-0.90;99.90
21306;DHT22;10812;51.838;5.838;2022-12-18T10:06:52;-0.80;99.90
21306;DHT22;10812;51.838;5.838;2022-12-18T10:09:28;-0.80;99.90
21306;DHT22;10812;51.838;5.838;2022-12-18T10:12:07;-0.80;99.90
21306;DHT22;10812;51.838;5.838;2022-12-18T10:14:42;-0.80;99.90
21306;DHT22;10812;51.838;5.838;2022-12-18T10:17:21;-0.80;99.90
21306;DHT22;10812;51.838;5.838;2022-12-18T10:19:54;-0.80;99.90
21306;DHT22;10812;51.838;5.838;2022-12-18T10:22:41;-0.80;99.90
21306;DHT22;10812;51.838;5.838;2022-12-18T10:25:22;-0.70;99.90
21306;DHT22;10812;51.838;5.838;2022-12-18T10:27:56;-0.60;99.90
21306;DHT22;10812;51.838;5.838;2022-12-18T10:30:26;-0.50;99.90
21306;DHT22;10812;51.838;5.838;2022-12-18T10:33:00;-0.40;99.90
21306;DHT22;10812;51.838;5.838;2022-12-18T10:35:28;-0.40;99.90
21306;DHT22;10812;51.838;5.838;2022-12-18T10:38:02;-0.40;99.90
21306;DHT22;10812;51.838;5.838;2022-12-18T10:40:31;-0.40;99.90
21306;DHT22;10812;51.838;5.838;2022-12-18T10:43:12;-0.30;99.90
21306;DHT22;10812;51.838;5.838;2022-12-18T10:45:41;-0.40;99.90
21306;DHT22;10812;51.838;5.838;2022-12-18T10:48:18;-0.30;99.90
21306;DHT22;10812;51.838;5.838;2022-12-18T10:50:49;-0.30;99.90
21306;DHT22;10812;51.838;5.838;2022-12-18T10:53:40;-0.20;99.90
21306;DHT22;10812;51.838;5.838;2022-12-18T10:56:10;-0.30;99.90
21306;DHT22;10812;51.838;5.838;2022-12-18T10:58:39;-0.20;99.90
21306;DHT22;10812;51.838;5.838;2022-12-18T11:01:11;-0.20;99.90
21306;DHT22;10812;51.838;5.838;2022-12-18T11:03:41;-0.20;99.90
21306;DHT22;10812;51.838;5.838;2022-12-18T11:06:12;-0.10;99.90
21306;DHT22;10812;51.838;5.838;2022-12-18T11:08:42;-0.10;99.90
21306;DHT22;10812;51.838;5.838;2022-12-18T11:11:20;0.00;99.90
21306;DHT22;10812;51.838;5.838;2022-12-18T11:13:59;-0.10;99.90
21306;DHT22;10812;51.838;5.838;2022-12-18T11:16:31;0.00;99.90
21306;DHT22;10812;51.838;5.838;2022-12-18T11:19:20;0.00;99.90
21306;DHT22;10812;51.838;5.838;2022-12-18T11:21:51;0.00;99.90
21306;DHT22;10812;51.838;5.838;2022-12-18T11:24:22;0.20;99.90
21306;DHT22;10812;51.838;5.838;2022-12-18T11:26:53;0.10;99.90
21306;DHT22;10812;51.838;5.838;2022-12-18T11:29:32;0.10;99.90
21306;DHT22;10812;51.838;5.838;2022-12-18T11:32:27;0.10;99.90
21306;DHT22;10812;51.838;5.838;2022-12-18T11:35:03;0.20;99.90
21306;DHT22;10812;51.838;5.838;2022-12-18T11:37:32;0.20;99.90
21306;DHT22;10812;51.838;5.838;2022-12-18T11:40:05;0.20;99.90
21306;DHT22;10812;51.838;5.838;2022-12-18T11:42:38;0.30;99.90
21306;DHT22;10812;51.838;5.838;2022-12-18T11:45:25;0.30;99.90
21306;DHT22;10812;51.838;5.838;2022-12-18T11:47:58;0.40;99.90
21306;DHT22;10812;51.838;5.838;2022-12-18T11:50:32;0.40;99.90
21306;DHT22;10812;51.838;5.838;2022-12-18T11:53:01;0.40;99.90
21306;DHT22;10812;51.838;5.838;2022-12-18T11:55:39;0.40;99.90
21306;DHT22;10812;51.838;5.838;2022-12-18T11:58:12;0.40;99.90
21306;DHT22;10812;51.838;5.838;2022-12-18T12:00:49;0.50;99.90
21306;DHT22;10812;51.838;5.838;2022-12-18T12:03:38;0.60;99.90
21306;DHT22;10812;51.838;5.838;2022-12-18T12:06:12;0.60;99.90
21306;DHT22;10812;51.838;5.838;2022-12-18T12:09:01;0.60;99.90
21306;DHT22;10812;51.838;5.838;2022-12-18T12:11:39;0.60;99.90
21306;DHT22;10812;51.838;5.838;2022-12-18T12:14:22;0.70;99.90
21306;DHT22;10812;51.838;5.838;2022-12-18T12:16:58;0.70;99.90
21306;DHT22;10812;51.838;5.838;2022-12-18T12:19:37;0.60;99.90
21306;DHT22;10812;51.838;5.838;2022-12-18T12:22:11;0.60;99.90
21306;DHT22;10812;51.838;5.838;2022-12-18T12:24:53;0.60;99.90
21306;DHT22;10812;51.838;5.838;2022-12-18T12:27:33;0.60;99.90
21306;DHT22;10812;51.838;5.838;2022-12-18T12:30:08;0.50;99.90
21306;DHT22;10812;51.838;5.838;2022-12-18T12:32:50;0.60;99.90
21306;DHT22;10812;51.838;5.838;2022-12-18T12:35:39;0.60;99.90
21306;DHT22;10812;51.838;5.838;2022-12-18T12:38:12;0.60;99.90
21306;DHT22;10812;51.838;5.838;2022-12-18T12:40:45;0.60;99.90
21306;DHT22;10812;51.838;5.838;2022-12-18T12:43:29;0.70;99.90
21306;DHT22;10812;51.838;5.838;2022-12-18T12:46:00;0.60;99.90
21306;DHT22;10812;51.838;5.838;2022-12-18T12:48:40;0.60;99.90
21306;DHT22;10812;51.838;5.838;2022-12-18T12:51:17;0.50;99.90
21306;DHT22;10812;51.838;5.838;2022-12-18T12:53:47;0.50;99.90
21306;DHT22;10812;51.838;5.838;2022-12-18T12:56:18;0.60;99.90
21306;DHT22;10812;51.838;5.838;2022-12-18T12:58:55;0.60;99.90
21306;DHT22;10812;51.838;5.838;2022-12-18T13:01:32;0.60;99.90
21306;DHT22;10812;51.838;5.838;2022-12-18T13:04:12;0.60;99.90
21306;DHT22;10812;51.838;5.838;2022-12-18T13:06:46;0.70;99.90
21306;DHT22;10812;51.838;5.838;2022-12-18T13:09:16;0.70;99.90
21306;DHT22;10812;51.838;5.838;2022-12-18T13:11:45;0.70;99.90
21306;DHT22;10812;51.838;5.838;2022-12-18T13:14:34;0.70;99.90
21306;DHT22;10812;51.838;5.838;2022-12-18T13:17:26;0.60;99.90
21306;DHT22;10812;51.838;5.838;2022-12-18T13:20:09;0.60;99.90
21306;DHT22;10812;51.838;5.838;2022-12-18T13:22:43;0.60;99.90
21306;DHT22;10812;51.838;5.838;2022-12-18T13:25:38;0.60;99.90
21306;DHT22;10812;51.838;5.838;2022-12-18T13:28:09;0.60;99.90
21306;DHT22;10812;51.838;5.838;2022-12-18T13:30:47;0.60;99.90
21306;DHT22;10812;51.838;5.838;2022-12-18T13:33:42;0.60;99.90
21306;DHT22;10812;51.838;5.838;2022-12-18T13:36:33;0.60;99.90
21306;DHT22;10812;51.838;5.838;2022-12-18T13:39:21;0.60;99.90
21306;DHT22;10812;51.838;5.838;2022-12-18T13:45:45;0.60;99.90
21306;DHT22;10812;51.838;5.838;2022-12-18T13:48:22;0.70;99.90
21306;DHT22;10812;51.838;5.838;2022-12-18T13:50:56;0.70;99.90
21306;DHT22;10812;51.838;5.838;2022-12-18T13:53:29;0.70;99.90
21306;DHT22;10812;51.838;5.838;2022-12-18T13:55:57;0.70;99.90
21306;DHT22;10812;51.838;5.838;2022-12-18T13:58:26;0.60;99.90
21306;DHT22;10812;51.838;5.838;2022-12-18T14:00:54;0.60;99.90
21306;DHT22;10812;51.838;5.838;2022-12-18T14:03:26;0.60;99.90
21306;DHT22;10812;51.838;5.838;2022-12-18T14:05:58;0.60;99.90
21306;DHT22;10812;51.838;5.838;2022-12-18T14:08:33;0.60;99.90
21306;DHT22;10812;51.838;5.838;2022-12-18T14:11:04;0.60;99.90
21306;DHT22;10812;51.838;5.838;2022-12-18T14:13:37;0.60;99.90
21306;DHT22;10812;51.838;5.838;2022-12-18T14:16:12;0.60;99.90
21306;DHT22;10812;51.838;5.838;2022-12-18T14:18:44;0.60;99.90
21306;DHT22;10812;51.838;5.838;2022-12-18T14:21:19;0.50;99.90
21306;DHT22;10812;51.838;5.838;2022-12-18T14:24:04;0.60;99.90
21306;DHT22;10812;51.838;5.838;2022-12-18T14:26:32;0.60;99.90
21306;DHT22;10812;51.838;5.838;2022-12-18T14:29:18;0.60;99.90
21306;DHT22;10812;51.838;5.838;2022-12-18T14:32:04;0.60;99.90
21306;DHT22;10812;51.838;5.838;2022-12-18T14:34:40;0.60;99.90
21306;DHT22;10812;51.838;5.838;2022-12-18T14:37:10;0.60;99.90
21306;DHT22;10812;51.838;5.838;2022-12-18T14:39:39;0.60;99.90
21306;DHT22;10812;51.838;5.838;2022-12-18T14:42:10;0.50;99.90
21306;DHT22;10812;51.838;5.838;2022-12-18T14:44:39;0.60;99.90
21306;DHT22;10812;51.838;5.838;2022-12-18T14:47:27;0.60;99.90
21306;DHT22;10812;51.838;5.838;2022-12-18T14:49:55;0.60;99.90
21306;DHT22;10812;51.838;5.838;2022-12-18T14:52:29;0.60;99.90
21306;DHT22;10812;51.838;5.838;2022-12-18T14:55:00;0.60;99.90
21306;DHT22;10812;51.838;5.838;2022-12-18T14:57:34;0.60;99.90
21306;DHT22;10812;51.838;5.838;2022-12-18T15:00:06;0.50;99.90
21306;DHT22;10812;51.838;5.838;2022-12-18T15:02:35;0.50;99.90
21306;DHT22;10812;51.838;5.838;2022-12-18T15:05:14;0.40;99.90
21306;DHT22;10812;51.838;5.838;2022-12-18T15:07:45;0.40;99.90
21306;DHT22;10812;51.838;5.838;2022-12-18T15:10:17;0.30;99.90
21306;DHT22;10812;51.838;5.838;2022-12-18T15:12:47;0.40;99.90
21306;DHT22;10812;51.838;5.838;2022-12-18T15:15:44;0.40;99.90
21306;DHT22;10812;51.838;5.838;2022-12-18T15:18:15;0.40;99.90
21306;DHT22;10812;51.838;5.838;2022-12-18T15:20:46;0.40;99.90
21306;DHT22;10812;51.838;5.838;2022-12-18T15:23:18;0.40;99.90
21306;DHT22;10812;51.838;5.838;2022-12-18T15:25:56;0.40;99.90
21306;DHT22;10812;51.838;5.838;2022-12-18T15:28:27;0.30;99.90
21306;DHT22;10812;51.838;5.838;2022-12-18T15:31:05;0.30;99.90
21306;DHT22;10812;51.838;5.838;2022-12-18T15:33:35;0.30;99.90
21306;DHT22;10812;51.838;5.838;2022-12-18T15:36:08;0.30;99.90
21306;DHT22;10812;51.838;5.838;2022-12-18T15:38:36;0.30;99.90
21306;DHT22;10812;51.838;5.838;2022-12-18T15:41:11;0.20;99.90
21306;DHT22;10812;51.838;5.838;2022-12-18T15:43:48;0.20;99.90
21306;DHT22;10812;51.838;5.838;2022-12-18T15:46:17;0.20;99.90
21306;DHT22;10812;51.838;5.838;2022-12-18T15:48:48;0.20;99.90
21306;DHT22;10812;51.838;5.838;2022-12-18T15:51:18;0.10;99.90
21306;DHT22;10812;51.838;5.838;2022-12-18T15:53:47;0.20;99.90
21306;DHT22;10812;51.838;5.838;2022-12-18T15:56:18;0.20;99.90
21306;DHT22;10812;51.838;5.838;2022-12-18T15:59:08;0.20;99.90
21306;DHT22;10812;51.838;5.838;2022-12-18T16:01:38;0.20;99.90
21306;DHT22;10812;51.838;5.838;2022-12-18T16:04:11;0.10;99.90
21306;DHT22;10812;51.838;5.838;2022-12-18T16:06:39;0.00;99.90
21306;DHT22;10812;51.838;5.838;2022-12-18T16:09:28;0.10;99.90
21306;DHT22;10812;51.838;5.838;2022-12-18T16:12:00;0.10;99.90
21306;DHT22;10812;51.838;5.838;2022-12-18T16:14:29;0.10;99.90
21306;DHT22;10812;51.838;5.838;2022-12-18T16:16:59;0.10;99.90
21306;DHT22;10812;51.838;5.838;2022-12-18T16:19:28;0.20;99.90
21306;DHT22;10812;51.838;5.838;2022-12-18T16:21:58;0.20;99.90
21306;DHT22;10812;51.838;5.838;2022-12-18T16:24:28;0.20;99.90
21306;DHT22;10812;51.838;5.838;2022-12-18T16:26:59;0.10;99.90